Time;durP1;ratioP1;P1;durP2;ratioP2;P2;SDS_P1;SDS_P2;PMS_P1;PMS_P2;Temp;Humidity;BMP_temperature;BMP_pressure;BME280_temperature;BME280_humidity;BME280_pressure;Samples;Min_cycle;Max_cycle;Signal;HPM_P1;HPM_P2
2024/01/06 00:02:14;;;;;;;;;4.50;4.50;;;;;6.69;83.99;98495.25;5096873;28;8826;-58
2024/01/06 00:04:42;;;;;;;;;4.00;3.75;;;;;6.68;84.01;98496.25;5096942;28;9479;-58
2024/01/06 00:07:10;;;;;;;;;1.00;1.00;;;;;6.69;83.78;98495.25;5095906;28;8842;-59
2024/01/06 00:09:38;;;;;;;;;6.50;5.00;;;;;6.68;83.87;98496.25;5096563;28;8830;-58
2024/01/06 00:12:06;;;;;;;;;7.00;4.00;;;;;6.70;83.88;98504.88;5096354;28;8883;-57
2024/01/06 00:14:33;;;;;;;;;6.25;4.00;;;;;6.69;83.99;98501.38;5097229;28;8826;-58
2024/01/06 00:17:02;;;;;;;;;7.00;7.00;;;;;6.70;83.93;98502.22;5095792;28;8956;-57
2024/01/06 00:19:29;;;;;;;;;5.00;4.00;;;;;6.70;84.30;98512.81;5095899;28;8826;-58
2024/01/06 00:22:00;;;;;;;;;10.00;8.00;;;;;6.70;84.04;98510.16;5095336;28;8826;-57
2024/01/06 00:24:28;;;;;;;;;5.00;5.00;;;;;6.70;83.89;98510.16;5095196;28;8926;-57
2024/01/06 00:26:56;;;;;;;;;7.00;7.00;;;;;6.69;83.89;98509.31;5091479;28;8826;-56
2024/01/06 00:29:24;;;;;;;;;4.00;4.00;;;;;6.70;84.22;98513.66;5095444;28;8826;-57
2024/01/06 00:31:51;;;;;;;;;7.00;6.25;;;;;6.70;83.99;98518.94;5095788;28;8830;-57
2024/01/06 00:34:19;;;;;;;;;4.00;3.50;;;;;6.71;84.04;98515.31;5096180;28;8829;-59
2024/01/06 00:36:47;;;;;;;;;3.00;2.50;;;;;6.71;84.49;98530.34;5096572;28;8856;-56
2024/01/06 00:39:15;;;;;;;;;4.50;3.00;;;;;6.71;84.21;98525.06;5095590;28;8922;-56
2024/01/06 00:41:43;;;;;;;;;6.00;6.00;;;;;6.70;84.10;98518.94;5097219;28;8860;-57
2024/01/06 00:44:10;;;;;;;;;6.50;6.00;;;;;6.71;84.32;98522.41;5094796;28;8956;-59
2024/01/06 00:46:38;;;;;;;;;6.75;6.25;;;;;6.70;84.09;98534.81;5095828;28;9599;-58
2024/01/06 00:49:06;;;;;;;;;6.75;6.50;;;;;6.71;84.49;98533.00;5095925;28;9569;-58
2024/01/06 00:51:34;;;;;;;;;7.00;7.00;;;;;6.71;84.03;98530.34;5096105;28;8818;-58
2024/01/06 00:54:06;;;;;;;;;6.00;3.75;;;;;6.71;84.27;98535.63;5096293;28;8837;-59
2024/01/06 00:56:33;;;;;;;;;6.80;5.20;;;;;6.70;84.00;98529.53;5095882;28;8822;-57
2024/01/06 00:59:01;;;;;;;;;6.25;6.25;;;;;6.71;84.71;98531.19;5095343;28;8838;-57
2024/01/06 01:01:29;;;;;;;;;2.00;1.00;;;;;6.71;84.74;98536.47;5095998;28;8829;-58
2024/01/06 01:03:57;;;;;;;;;7.00;5.60;;;;;6.74;84.27;98538.03;5095881;28;8842;-58
2024/01/06 01:06:25;;;;;;;;;6.50;5.75;;;;;6.76;84.33;98541.38;5095822;28;8841;-59
2024/01/06 01:08:53;;;;;;;;;6.00;6.00;;;;;6.76;84.05;98539.53;5094935;28;8944;-56
2024/01/06 01:11:21;;;;;;;;;5.00;3.75;;;;;6.77;84.09;98543.03;5096408;28;8826;-59
2024/01/06 01:13:48;;;;;;;;;7.00;7.00;;;;;6.76;84.08;98550.13;5095282;28;8862;-59
2024/01/06 01:16:16;;;;;;;;;6.75;6.00;;;;;6.78;84.30;98544.72;5094412;28;8808;-59
2024/01/06 01:18:44;;;;;;;;;4.00;3.00;;;;;6.78;84.20;98552.66;5095211;28;8826;-59
2024/01/06 01:21:12;;;;;;;;;8.00;5.25;;;;;6.77;83.87;98556.28;5095427;28;9508;-58
2024/01/06 01:23:40;;;;;;;;;6.75;6.75;;;;;6.76;84.43;98554.59;5096066;28;8842;-59
2024/01/06 01:26:08;;;;;;;;;8.20;8.20;;;;;6.75;84.77;98558.22;5094843;28;8842;-59
2024/01/06 01:28:35;;;;;;;;;6.80;6.20;;;;;6.75;84.41;98560.88;5095135;28;8814;-59
2024/01/06 01:31:03;;;;;;;;;7.00;7.00;;;;;6.76;84.26;98557.25;5095077;28;8941;-58
2024/01/06 01:33:31;;;;;;;;;6.00;6.00;;;;;6.75;84.30;98559.03;5095363;28;8853;-59
2024/01/06 01:35:59;;;;;;;;;6.75;6.50;;;;;6.76;84.42;98555.41;5094962;28;8834;-58
2024/01/06 01:38:29;;;;;;;;;5.00;5.00;;;;;6.75;84.25;98552.94;5095016;28;8825;-58
2024/01/06 01:40:57;;;;;;;;;7.00;7.00;;;;;6.76;84.59;98550.13;5094355;28;9007;-58
2024/01/06 01:43:25;;;;;;;;;4.00;3.25;;;;;6.77;84.46;98559.75;5095331;28;8951;-56
2024/01/06 01:45:52;;;;;;;;;6.00;6.00;;;;;6.80;84.43;98561.28;5094894;28;8907;-58
2024/01/06 01:48:22;;;;;;;;;12.00;10.00;;;;;6.80;84.34;98566.56;5094953;28;8907;-58
2024/01/06 01:50:50;;;;;;;;;5.25;5.00;;;;;6.80;84.54;98571.88;5094115;28;8894;-58
2024/01/06 01:53:18;;;;;;;;;9.00;6.75;;;;;6.79;84.38;98571.03;5095008;28;8833;-57
2024/01/06 01:55:45;;;;;;;;;5.50;4.75;;;;;6.77;84.46;98578.28;5094286;28;8825;-58
2024/01/06 01:58:13;;;;;;;;;3.25;3.00;;;;;6.77;84.75;98582.72;5095406;28;9543;-57
2024/01/06 02:00:41;;;;;;;;;6.50;6.00;;;;;6.76;84.65;98581.06;5094443;28;8922;-57
2024/01/06 02:03:09;;;;;;;;;5.00;4.50;;;;;6.76;84.55;98588.97;5091608;28;8818;-56
2024/01/06 02:05:37;;;;;;;;;1.00;1.00;;;;;6.76;84.78;98583.69;5094617;28;8905;-58
2024/01/06 02:08:05;;;;;;;;;5.60;4.60;;;;;6.76;84.73;98583.69;5094656;28;8848;-59
2024/01/06 02:10:33;;;;;;;;;4.00;3.00;;;;;6.74;84.80;98572.41;5094388;28;8836;-57
2024/01/06 02:13:01;;;;;;;;;7.00;5.00;;;;;6.73;84.27;98576.84;5094495;28;8834;-57
2024/01/06 02:15:29;;;;;;;;;5.00;4.00;;;;;6.72;84.80;98574.34;5094752;28;8811;-58
2024/01/06 02:17:58;;;;;;;;;5.20;4.00;;;;;6.71;84.66;98573.50;5094770;28;8969;-59
2024/01/06 02:20:26;;;;;;;;;4.00;4.00;;;;;6.71;84.72;98584.09;5094310;28;8842;-57
2024/01/06 02:22:54;;;;;;;;;5.00;5.00;;;;;6.70;84.48;98582.41;5094898;28;8840;-57
2024/01/06 02:25:22;;;;;;;;;2.50;2.50;;;;;6.70;84.72;98589.50;5095573;28;8864;-58
2024/01/06 02:27:49;;;;;;;;;5.20;3.60;;;;;6.69;85.03;98590.47;5095598;28;8822;-57
2024/01/06 02:30:17;;;;;;;;;3.50;3.50;;;;;6.69;85.07;98598.41;5095817;28;8818;-57
2024/01/06 02:32:45;;;;;;;;;5.50;5.50;;;;;6.69;84.82;98607.16;5087489;28;8807;-59
2024/01/06 02:35:13;;;;;;;;;6.00;5.50;;;;;6.68;85.33;98602.84;5095522;28;8826;-58
2024/01/06 02:37:41;;;;;;;;;7.00;6.00;;;;;6.67;84.42;98605.66;5095768;28;8826;-58
2024/01/06 02:40:09;;;;;;;;;4.50;4.50;;;;;6.67;85.07;98610.94;5095496;28;8846;-58
2024/01/06 02:42:36;;;;;;;;;4.00;4.00;;;;;6.67;85.12;98610.94;5094644;28;8815;-59
2024/01/06 02:45:04;;;;;;;;;5.00;5.00;;;;;6.67;84.95;98616.22;5095229;28;8829;-59
2024/01/06 02:47:32;;;;;;;;;3.75;2.50;;;;;6.65;85.02;98615.50;5095375;28;8826;-58
2024/01/06 02:49:59;;;;;;;;;3.25;3.00;;;;;6.64;85.04;98611.19;5095380;28;8837;-57
2024/01/06 02:52:27;;;;;;;;;7.50;6.25;;;;;6.63;85.12;98620.94;5095019;28;8941;-58
2024/01/06 02:54:55;;;;;;;;;6.00;6.00;;;;;6.63;85.10;98618.28;5095543;28;8956;-57
2024/01/06 02:57:23;;;;;;;;;1.00;1.00;;;;;6.63;85.17;98620.94;5094961;28;8829;-58
2024/01/06 02:59:51;;;;;;;;;3.00;3.00;;;;;6.62;85.17;98624.56;5094852;28;8911;-58
2024/01/06 03:02:19;;;;;;;;;4.50;4.50;;;;;6.62;85.13;98627.19;5095334;28;9479;-57
2024/01/06 03:04:47;;;;;;;;;3.40;3.20;;;;;6.61;85.05;98629.97;5095542;28;9495;-58
2024/01/06 03:07:14;;;;;;;;;2.00;2.00;;;;;6.58;85.20;98631.06;5095790;28;8830;-58
2024/01/06 03:09:42;;;;;;;;;5.50;4.00;;;;;6.58;85.25;98640.78;5099136;28;8834;-58
2024/01/06 03:12:10;;;;;;;;;3.50;3.25;;;;;6.56;85.08;98645.38;5098882;28;8810;-59
2024/01/06 03:14:38;;;;;;;;;3.00;3.00;;;;;6.52;84.94;98646.63;5098759;28;8854;-58
2024/01/06 03:17:06;;;;;;;;;2.50;1.50;;;;;6.48;85.43;98639.88;5098872;28;8826;-56
2024/01/06 03:19:33;;;;;;;;;1.00;1.00;;;;;6.45;85.86;98642.81;5098595;28;8829;-58
2024/01/06 03:22:01;;;;;;;;;2.00;1.00;;;;;6.41;85.42;98641.38;5098773;28;8818;-58
2024/01/06 03:24:30;;;;;;;;;0.50;0.50;;;;;6.40;85.24;98647.63;5098460;28;8949;-56
2024/01/06 03:26:58;;;;;;;;;0.00;0.00;;;;;6.39;85.55;98640.66;5098506;28;8855;-58
2024/01/06 03:29:26;;;;;;;;;1.00;1.00;;;;;6.38;85.53;98644.28;5097712;28;8821;-58
2024/01/06 03:31:53;;;;;;;;;1.00;1.00;;;;;6.37;85.78;98651.34;5097770;28;9827;-57
2024/01/06 03:34:21;;;;;;;;;2.00;2.00;;;;;6.36;85.63;98654.16;5097766;28;8806;-58
2024/01/06 03:36:49;;;;;;;;;1.00;1.00;;;;;6.33;86.13;98659.66;5097790;28;8919;-58
2024/01/06 03:39:17;;;;;;;;;1.00;1.00;;;;;6.33;85.75;98657.03;5097244;28;8818;-57
2024/01/06 03:41:45;;;;;;;;;1.50;1.00;;;;;6.31;85.78;98654.50;5098544;28;8821;-57
2024/01/06 03:44:12;;;;;;;;;2.00;1.00;;;;;6.31;85.25;98657.16;5097797;28;8864;-56
2024/01/06 03:46:40;;;;;;;;;6.00;3.00;;;;;6.32;85.56;98660.63;5097189;28;8838;-58
2024/01/06 03:49:08;;;;;;;;;1.00;1.00;;;;;6.34;85.12;98659.56;5096573;28;8840;-58
2024/01/06 03:51:36;;;;;;;;;2.00;1.00;;;;;6.38;85.38;98662.78;5097958;28;8910;-57
2024/01/06 03:54:04;;;;;;;;;2.00;1.50;;;;;6.40;85.23;98674.06;5097144;28;8840;-57
2024/01/06 03:56:31;;;;;;;;;1.00;1.00;;;;;6.43;85.36;98673.78;5096863;28;8852;-58
2024/01/06 03:58:59;;;;;;;;;5.25;3.75;;;;;6.43;85.31;98672.00;5097616;28;8845;-58
2024/01/06 04:01:28;;;;;;;;;3.25;3.00;;;;;6.45;85.66;98671.88;5096872;28;8830;-58
2024/01/06 04:03:55;;;;;;;;;4.50;4.25;;;;;6.47;85.12;98680.53;5097475;28;8849;-58
2024/01/06 04:06:23;;;;;;;;;3.00;3.00;;;;;6.47;85.11;98678.72;5097213;28;8923;-58
2024/01/06 04:08:53;;;;;;;;;1.00;1.00;;;;;6.49;84.97;98670.66;5095809;28;8818;-58
2024/01/06 04:11:20;;;;;;;;;3.50;2.25;;;;;6.50;84.88;98677.59;5095899;28;8933;-59
2024/01/06 04:13:48;;;;;;;;;5.60;5.60;;;;;6.50;85.33;98675.81;5096675;28;8864;-58
2024/01/06 04:16:16;;;;;;;;;6.00;5.50;;;;;6.51;85.31;98677.47;5096488;28;8832;-58
2024/01/06 04:18:43;;;;;;;;;3.75;3.00;;;;;6.52;84.83;98678.34;5095570;28;8838;-58
2024/01/06 04:21:11;;;;;;;;;6.00;6.00;;;;;6.52;84.91;98678.34;5096887;28;8826;-57
2024/01/06 04:23:39;;;;;;;;;9.00;7.00;;;;;6.54;85.13;98676.41;5096597;28;8910;-57
2024/01/06 04:26:07;;;;;;;;;6.50;6.50;;;;;6.54;85.07;98685.16;5096969;28;8872;-56
2024/01/06 04:28:35;;;;;;;;;4.75;3.50;;;;;6.56;85.20;98680.59;5094716;28;8814;-58
2024/01/06 04:31:02;;;;;;;;;0.25;0.00;;;;;6.58;84.82;98686.59;5097001;28;8841;-59
2024/01/06 04:33:31;;;;;;;;;11.00;10.25;;;;;6.60;85.13;98678.53;5096925;28;8842;-58
2024/01/06 04:35:58;;;;;;;;;5.50;4.00;;;;;6.61;84.97;98688.16;5096746;28;8826;-58
2024/01/06 04:38:26;;;;;;;;;8.50;6.75;;;;;6.62;84.87;98697.75;5096329;28;8858;-56
2024/01/06 04:40:54;;;;;;;;;12.00;9.00;;;;;6.61;85.46;98696.06;5096684;28;8830;-58
2024/01/06 04:43:21;;;;;;;;;7.00;6.50;;;;;6.60;85.09;98694.41;5096758;28;8858;-57
2024/01/06 04:45:50;;;;;;;;;6.00;4.80;;;;;6.60;85.08;98697.03;5096674;28;8822;-58
2024/01/06 04:48:18;;;;;;;;;6.80;5.20;;;;;6.57;85.43;98695.50;5095848;28;8814;-58
2024/01/06 04:50:45;;;;;;;;;8.80;7.40;;;;;6.56;85.28;98700.91;5096201;28;8826;-58
2024/01/06 04:53:13;;;;;;;;;7.50;6.75;;;;;6.52;85.32;98707.44;5096619;28;8847;-59
2024/01/06 04:55:41;;;;;;;;;10.00;8.60;;;;;6.48;84.88;98706.84;5096624;28;8834;-56
2024/01/06 04:58:09;;;;;;;;;6.00;5.20;;;;;6.45;85.54;98714.19;5096717;28;8864;-57
2024/01/06 05:00:37;;;;;;;;;4.00;4.00;;;;;6.40;85.68;98713.72;5097270;28;8864;-57
2024/01/06 05:03:04;;;;;;;;;8.00;7.40;;;;;6.37;85.78;98722.72;5096976;28;8822;-58
2024/01/06 05:05:32;;;;;;;;;4.40;3.60;;;;;6.36;85.97;98721.06;5096325;28;8822;-58
2024/01/06 05:08:01;;;;;;;;;7.00;6.00;;;;;6.33;85.65;98734.53;5095933;28;8826;-59
2024/01/06 05:10:28;;;;;;;;;9.00;7.80;;;;;6.33;85.16;98736.31;5096929;28;8903;-57
2024/01/06 05:12:56;;;;;;;;;7.75;6.50;;;;;6.30;85.78;98742.69;5097120;28;8841;-56
2024/01/06 05:15:24;;;;;;;;;7.00;6.25;;;;;6.29;86.07;98740.22;5096587;28;8837;-58
2024/01/06 05:17:52;;;;;;;;;9.25;6.75;;;;;6.27;85.33;98747.41;5096516;28;8811;-57
2024/01/06 05:20:19;;;;;;;;;5.50;3.25;;;;;6.25;86.05;98747.53;5095967;28;8849;-59
2024/01/06 05:22:47;;;;;;;;;9.80;7.00;;;;;6.23;86.03;98752.09;5095433;28;8818;-59
2024/01/06 05:25:15;;;;;;;;;8.00;6.80;;;;;6.24;85.99;98747.66;5095356;28;9526;-58
2024/01/06 05:27:42;;;;;;;;;8.50;7.00;;;;;6.22;85.79;98760.97;5094765;28;8818;-59
2024/01/06 05:30:10;;;;;;;;;5.00;4.50;;;;;6.22;85.63;98758.34;5096145;28;9526;-59
2024/01/06 05:32:38;;;;;;;;;9.50;7.00;;;;;6.25;85.88;98757.25;5096630;28;8865;-59
2024/01/06 05:35:07;;;;;;;;;8.00;7.40;;;;;6.24;85.87;98764.38;5096251;28;8840;-59
2024/01/06 05:37:34;;;;;;;;;6.00;4.00;;;;;6.25;85.82;98765.19;5094847;28;8874;-59
2024/01/06 05:40:03;;;;;;;;;9.40;6.40;;;;;6.26;85.90;98767.72;5094168;28;8857;-59
2024/01/06 05:42:32;;;;;;;;;6.20;6.20;;;;;6.29;85.83;98764.00;5095417;28;8828;-58
2024/01/06 05:45:00;;;;;;;;;6.50;6.00;;;;;6.27;85.93;98773.81;5095189;28;8845;-58
2024/01/06 05:47:28;;;;;;;;;8.60;8.20;;;;;6.26;86.04;98772.16;5095881;28;8822;-57
2024/01/06 05:49:55;;;;;;;;;7.40;6.40;;;;;6.24;85.64;98774.94;5095459;28;9524;-59
2024/01/06 05:52:24;;;;;;;;;6.40;5.60;;;;;6.21;85.93;98772.53;5095470;28;8810;-58
2024/01/06 05:54:52;;;;;;;;;10.00;9.40;;;;;6.19;85.75;98785.03;5094891;28;8856;-56
2024/01/06 05:57:20;;;;;;;;;9.20;9.20;;;;;6.15;86.02;98780.13;5095324;28;8826;-56
2024/01/06 05:59:48;;;;;;;;;9.00;7.40;;;;;6.12;85.95;98789.13;5094770;28;8814;-58
2024/01/06 06:02:16;;;;;;;;;8.40;7.60;;;;;6.10;86.37;98792.84;5095161;28;8826;-57
2024/01/06 06:04:44;;;;;;;;;9.60;9.00;;;;;6.06;86.19;98791.44;5094723;28;8814;-58
2024/01/06 06:07:12;;;;;;;;;12.40;9.80;;;;;6.06;86.31;98786.97;5094926;28;8826;-58
2024/01/06 06:09:40;;;;;;;;;4.00;4.00;;;;;6.07;86.01;98803.69;5094685;28;8887;-57
2024/01/06 06:12:08;;;;;;;;;5.60;3.20;;;;;6.05;86.13;98800.28;5094688;28;8837;-56
2024/01/06 06:14:35;;;;;;;;;8.40;8.00;;;;;6.03;86.34;98807.50;5095934;28;8872;-57
2024/01/06 06:17:03;;;;;;;;;0.00;0.00;;;;;6.00;86.08;98800.66;5096058;28;8822;-56
2024/01/06 06:19:31;;;;;;;;;6.60;6.00;;;;;5.99;86.50;98800.81;5095431;28;8807;-58
2024/01/06 06:21:58;;;;;;;;;7.20;7.20;;;;;5.97;86.36;98802.69;5095881;28;8963;-57
2024/01/06 06:24:26;;;;;;;;;4.80;4.80;;;;;5.98;86.42;98812.31;5095115;28;9491;-58
2024/01/06 06:26:54;;;;;;;;;8.20;8.20;;;;;5.98;86.26;98814.94;5094351;28;8810;-58
2024/01/06 06:29:22;;;;;;;;;6.60;6.20;;;;;5.98;86.31;98814.94;5093869;28;9008;-58
2024/01/06 06:31:49;;;;;;;;;6.00;4.25;;;;;5.96;86.89;98822.16;5095323;28;8837;-58
2024/01/06 06:34:18;;;;;;;;;7.40;7.00;;;;;5.96;86.51;98823.03;5095016;28;9499;-56
2024/01/06 06:36:47;;;;;;;;;3.20;3.00;;;;;5.97;86.37;98829.13;5094250;28;8837;-56
2024/01/06 06:39:15;;;;;;;;;8.60;4.40;;;;;5.98;86.32;98836.09;5094412;28;8829;-56
2024/01/06 06:41:43;;;;;;;;;9.40;8.80;;;;;5.97;86.10;98840.53;5093983;28;8922;-56
2024/01/06 06:44:11;;;;;;;;;6.80;6.80;;;;;5.97;86.44;98840.53;5098179;28;8834;-58
2024/01/06 06:46:38;;;;;;;;;7.00;5.60;;;;;5.96;86.25;98854.72;5097766;28;8852;-58
2024/01/06 06:49:06;;;;;;;;;5.60;5.60;;;;;5.95;86.40;98858.31;5098459;28;8818;-58
2024/01/06 06:51:34;;;;;;;;;4.40;3.60;;;;;5.94;86.24;98856.66;5098564;28;8814;-58
2024/01/06 06:54:02;;;;;;;;;6.40;6.40;;;;;5.93;86.18;98867.31;5098650;28;8834;-58
2024/01/06 06:56:30;;;;;;;;;7.80;6.80;;;;;5.94;85.93;98869.84;5097630;28;8889;-58
2024/01/06 06:58:58;;;;;;;;;4.00;4.00;;;;;5.92;86.23;98871.75;5097934;28;9248;-57
2024/01/06 07:01:26;;;;;;;;;4.40;3.40;;;;;5.91;86.53;98874.53;5097705;28;8844;-58
2024/01/06 07:03:53;;;;;;;;;7.20;6.80;;;;;5.90;86.38;98875.47;5097384;28;8895;-58
2024/01/06 07:06:21;;;;;;;;;4.00;3.80;;;;;5.88;86.53;98880.91;5097516;28;8838;-58
2024/01/06 07:08:50;;;;;;;;;8.20;7.00;;;;;5.87;86.43;98879.22;5096980;28;8914;-58
2024/01/06 07:11:18;;;;;;;;;11.60;9.20;;;;;5.87;86.20;98886.28;5090328;28;8809;-58
2024/01/06 07:13:45;;;;;;;;;4.20;3.80;;;;;5.88;86.23;98895.88;5098194;28;8846;-58
2024/01/06 07:16:12;;;;;;;;;9.40;9.20;;;;;5.88;86.58;98903.81;5097751;28;8818;-58
2024/01/06 07:18:46;;;;;;;;;4.40;2.00;;;;;5.88;86.71;98901.19;5098030;28;8814;-58
2024/01/06 07:21:14;;;;;;;;;8.40;5.60;;;;;5.87;86.31;98905.63;5096962;28;8816;-56
2024/01/06 07:23:42;;;;;;;;;9.00;7.60;;;;;5.86;86.56;98908.38;5098065;28;8833;-58
2024/01/06 07:26:10;;;;;;;;;10.40;7.00;;;;;5.86;86.31;98909.22;5097162;28;8950;-58
2024/01/06 07:28:38;;;;;;;;;5.60;4.40;;;;;5.87;86.35;98918.00;5097911;28;8829;-59
2024/01/06 07:31:06;;;;;;;;;4.00;3.80;;;;;5.84;86.44;98924.34;5095906;28;8806;-56
2024/01/06 07:33:34;;;;;;;;;9.00;6.80;;;;;5.82;86.47;98920.97;5098525;28;8822;-58
2024/01/06 07:36:01;;;;;;;;;9.00;6.80;;;;;5.81;86.69;98923.72;5097988;28;8841;-58
2024/01/06 07:38:30;;;;;;;;;7.40;5.60;;;;;5.78;86.31;98931.88;5098716;28;8838;-57
2024/01/06 07:40:59;;;;;;;;;1.00;1.00;;;;;5.76;86.55;98928.50;5094566;28;8841;-58
2024/01/06 07:43:27;;;;;;;;;6.80;6.00;;;;;5.72;86.26;98938.47;5093084;28;8858;-57
2024/01/06 07:45:54;;;;;;;;;6.20;6.20;;;;;5.72;86.63;98948.19;5097746;28;8822;-56
2024/01/06 07:48:22;;;;;;;;;5.60;5.60;;;;;5.72;86.26;98949.03;5096653;28;8826;-58
2024/01/06 07:50:50;;;;;;;;;4.00;3.60;;;;;5.76;86.64;98957.56;5097403;28;8922;-56
2024/01/06 07:53:18;;;;;;;;;6.80;5.60;;;;;5.75;86.36;98958.50;5096079;28;8834;-56
2024/01/06 07:55:45;;;;;;;;;4.80;4.80;;;;;5.72;86.28;98966.66;5097536;28;8822;-58
2024/01/06 07:58:13;;;;;;;;;4.00;4.00;;;;;5.68;86.47;98965.22;5097441;28;8937;-56
2024/01/06 08:00:41;;;;;;;;;6.20;5.20;;;;;5.67;87.00;98968.81;5096891;28;8858;-57
2024/01/06 08:03:11;;;;;;;;;5.60;5.60;;;;;5.66;86.68;98977.69;5090484;28;8829;-58
2024/01/06 08:05:39;;;;;;;;;5.60;4.40;;;;;5.64;86.96;98979.59;5097376;28;8833;-56
2024/01/06 08:08:07;;;;;;;;;6.20;6.00;;;;;5.64;86.64;98984.88;5097643;28;8856;-56
2024/01/06 08:10:34;;;;;;;;;5.60;4.00;;;;;5.64;86.67;98982.25;5097033;28;8841;-56
2024/01/06 08:13:02;;;;;;;;;4.00;4.00;;;;;5.62;86.30;98992.91;5096152;28;8865;-56
2024/01/06 08:15:32;;;;;;;;;5.20;5.20;;;;;5.64;86.87;98990.16;5097414;28;9592;-56
2024/01/06 08:18:00;;;;;;;;;4.40;3.40;;;;;5.66;86.95;99001.44;5097320;28;8842;-58
2024/01/06 08:20:28;;;;;;;;;9.00;7.00;;;;;5.65;86.81;98999.78;5096899;28;8845;-59
2024/01/06 08:22:56;;;;;;;;;7.60;5.80;;;;;5.64;86.55;99006.88;5096928;28;8849;-58
2024/01/06 08:25:25;;;;;;;;;7.80;7.20;;;;;5.62;87.03;99008.75;5097102;28;8818;-58
2024/01/06 08:27:53;;;;;;;;;6.60;6.60;;;;;5.61;86.83;99007.06;5096875;28;9002;-59
2024/01/06 08:30:20;;;;;;;;;3.80;3.80;;;;;5.61;86.90;99012.34;5094564;28;9558;-59
2024/01/06 08:32:48;;;;;;;;;8.60;7.00;;;;;5.64;86.68;99021.84;5096498;28;8925;-57
2024/01/06 08:35:17;;;;;;;;;9.40;8.60;;;;;5.65;86.50;99031.47;5076819;28;8981;-57
2024/01/06 08:37:45;;;;;;;;;2.60;2.20;;;;;5.67;86.92;99032.19;5076954;28;8862;-56
2024/01/06 08:40:12;;;;;;;;;5.20;4.00;;;;;5.67;86.91;99037.47;5095600;28;8844;-59
2024/01/06 08:42:40;;;;;;;;;9.60;8.20;;;;;5.67;86.93;99040.94;5097043;28;8833;-59
2024/01/06 08:45:08;;;;;;;;;6.00;6.00;;;;;5.68;87.21;99044.44;5097158;28;8818;-58
2024/01/06 08:47:36;;;;;;;;;4.00;3.60;;;;;5.69;86.69;99046.97;5096595;28;8826;-58
2024/01/06 08:50:04;;;;;;;;;10.40;9.80;;;;;5.69;86.48;99061.97;5095647;28;8834;-58
2024/01/06 08:52:32;;;;;;;;;8.00;6.40;;;;;5.67;86.36;99059.44;5095551;28;8832;-58
2024/01/06 08:54:59;;;;;;;;;3.00;3.00;;;;;5.65;86.57;99064.00;5095464;28;8834;-58
2024/01/06 08:57:27;;;;;;;;;9.40;7.80;;;;;5.65;87.21;99057.88;5095343;28;8885;-56
2024/01/06 08:59:56;;;;;;;;;9.00;6.60;;;;;5.64;86.63;99070.25;5095762;28;8892;-56
2024/01/06 09:02:23;;;;;;;;;9.60;8.80;;;;;5.63;86.87;99073.81;5096444;28;8841;-56
2024/01/06 09:04:51;;;;;;;;;12.40;9.80;;;;;5.63;87.10;99072.97;5095314;28;8830;-58
2024/01/06 09:07:19;;;;;;;;;10.40;10.40;;;;;5.64;87.09;99079.94;5096455;28;8956;-57
2024/01/06 09:09:47;;;;;;;;;7.00;6.60;;;;;5.64;86.71;99078.16;5095914;28;8818;-56
2024/01/06 09:12:14;;;;;;;;;7.00;6.00;;;;;5.64;87.04;99085.22;5095981;28;9523;-58
2024/01/06 09:14:42;;;;;;;;;1.00;1.00;;;;;5.60;86.73;99083.75;5096154;28;8846;-57
2024/01/06 09:17:10;;;;;;;;;7.40;7.40;;;;;5.57;86.72;99086.63;5095619;28;8838;-58
2024/01/06 09:19:37;;;;;;;;;3.40;3.00;;;;;5.55;87.04;99085.91;5095846;28;8822;-56
2024/01/06 09:22:05;;;;;;;;;0.00;0.00;;;;;5.53;86.94;99095.75;5095991;28;8967;-57
2024/01/06 09:24:34;;;;;;;;;6.80;6.00;;;;;5.51;87.15;99092.34;5096590;28;8832;-57
2024/01/06 09:27:01;;;;;;;;;14.40;11.00;;;;;5.50;87.20;99103.88;5095918;28;8849;-56
2024/01/06 09:29:29;;;;;;;;;9.20;7.40;;;;;5.51;87.05;99110.84;5095411;28;8820;-58
2024/01/06 09:31:57;;;;;;;;;10.40;9.20;;;;;5.50;87.28;99106.50;5095491;28;8806;-58
2024/01/06 09:34:25;;;;;;;;;8.00;6.20;;;;;5.51;87.59;99109.06;5095320;28;8834;-59
2024/01/06 09:36:53;;;;;;;;;5.60;5.40;;;;;5.52;87.24;99110.72;5094803;28;8865;-59
2024/01/06 09:39:20;;;;;;;;;6.60;5.80;;;;;5.53;87.34;99120.34;5095110;28;8825;-59
2024/01/06 09:41:48;;;;;;;;;9.60;9.20;;;;;5.52;87.43;99123.94;5095467;28;8830;-59
2024/01/06 09:44:17;;;;;;;;;20.00;13.20;;;;;5.49;86.86;99129.44;5095059;28;8838;-59
2024/01/06 09:46:44;;;;;;;;;10.40;9.20;;;;;5.44;87.64;99135.97;5095357;28;8836;-59
2024/01/06 09:49:13;;;;;;;;;10.60;9.00;;;;;5.39;86.83;99138.97;5094867;28;8815;-59
2024/01/06 09:51:41;;;;;;;;;11.00;9.80;;;;;5.33;87.37;99128.84;5094976;28;8818;-59
2024/01/06 09:54:09;;;;;;;;;10.00;10.00;;;;;5.32;87.72;99142.16;5095741;28;8850;-58
2024/01/06 09:56:37;;;;;;;;;4.80;4.80;;;;;5.30;87.29;99142.25;5095093;28;8845;-57
2024/01/06 09:59:04;;;;;;;;;7.00;6.80;;;;;5.32;87.83;99144.81;5094792;28;9503;-56
2024/01/06 10:01:32;;;;;;;;;3.40;2.60;;;;;5.33;87.78;99146.47;5094759;28;9491;-59
2024/01/06 10:04:00;;;;;;;;;6.00;4.40;;;;;5.33;87.54;99154.41;5094076;28;8822;-58
2024/01/06 10:06:28;;;;;;;;;7.60;6.60;;;;;5.31;87.62;99156.31;5093427;28;8842;-58
2024/01/06 10:08:56;;;;;;;;;7.40;6.40;;;;;5.31;87.17;99162.41;5092672;28;8831;-58
2024/01/06 10:11:23;;;;;;;;;3.40;2.20;;;;;5.33;87.47;99164.97;5093059;28;8968;-58
2024/01/06 10:13:51;;;;;;;;;6.80;6.00;;;;;5.34;86.97;99166.63;5092949;28;8858;-57
2024/01/06 10:16:19;;;;;;;;;3.20;3.00;;;;;5.36;87.97;99170.88;5092356;28;9502;-57
2024/01/06 10:18:47;;;;;;;;;4.20;4.00;;;;;5.38;87.50;99173.41;5093256;28;8851;-56
2024/01/06 10:21:20;;;;;;;;;5.20;5.00;;;;;5.38;87.42;99163.66;5093300;28;9468;-57
2024/01/06 10:23:48;;;;;;;;;6.60;6.00;;;;;5.35;87.14;99169.19;5093324;28;8948;-58
2024/01/06 10:26:17;;;;;;;;;7.00;6.60;;;;;5.33;87.59;99171.06;5093623;28;8830;-58
2024/01/06 10:28:45;;;;;;;;;6.80;6.40;;;;;5.33;87.33;99175.50;5093991;28;8818;-56
2024/01/06 10:31:13;;;;;;;;;4.00;4.00;;;;;5.32;87.58;99171.19;5093562;28;8850;-57
2024/01/06 10:33:41;;;;;;;;;9.80;9.00;;;;;5.32;87.25;99171.19;5093889;28;8864;-56
2024/01/06 10:36:10;;;;;;;;;3.60;3.40;;;;;5.32;87.59;99179.94;5093549;28;8854;-56
2024/01/06 10:38:39;;;;;;;;;6.80;4.80;;;;;5.33;87.72;99175.50;5094440;28;8838;-58
2024/01/06 10:41:09;;;;;;;;;4.00;4.00;;;;;5.33;87.38;99178.97;5094068;28;8845;-56
2024/01/06 10:43:40;;;;;;;;;9.20;6.40;;;;;5.34;87.46;99177.19;5093939;28;8869;-56
2024/01/06 10:46:10;;;;;;;;;7.40;7.40;;;;;5.30;87.42;99187.13;5094381;28;8830;-56
2024/01/06 10:48:42;;;;;;;;;5.20;4.40;;;;;5.30;87.30;99188.91;5094557;28;8846;-58
2024/01/06 10:51:11;;;;;;;;;8.40;8.40;;;;;5.30;87.24;99189.75;5093783;28;8817;-58
2024/01/06 10:53:39;;;;;;;;;6.00;3.80;;;;;5.29;87.08;99187.22;5094632;28;8837;-57
2024/01/06 10:56:09;;;;;;;;;7.60;7.60;;;;;5.28;87.75;99193.47;5094498;28;8826;-56
2024/01/06 10:58:42;;;;;;;;;7.40;6.20;;;;;5.27;87.54;99191.78;5094026;28;9745;-56
2024/01/06 11:01:10;;;;;;;;;6.00;4.80;;;;;5.23;87.44;99196.41;5093224;28;8866;-59
2024/01/06 11:03:38;;;;;;;;;12.20;8.60;;;;;5.17;87.80;99191.56;5093088;28;8850;-58
2024/01/06 11:06:07;;;;;;;;;9.40;9.20;;;;;5.16;87.58;99189.06;5093451;28;8872;-57
2024/01/06 11:08:35;;;;;;;;;8.00;7.80;;;;;5.12;87.76;99192.84;5092651;28;8815;-58
2024/01/06 11:11:02;;;;;;;;;1.40;1.00;;;;;5.11;87.69;99185.88;5093370;28;8840;-58
2024/01/06 11:13:30;;;;;;;;;3.80;3.60;;;;;5.07;87.52;99189.66;5092767;28;8939;-57
2024/01/06 11:15:58;;;;;;;;;7.00;7.00;;;;;5.09;87.77;99193.06;5092736;28;9629;-57
2024/01/06 11:18:26;;;;;;;;;3.20;3.20;;;;;5.07;87.55;99192.31;5092976;28;8822;-58
2024/01/06 11:20:54;;;;;;;;;1.40;1.00;;;;;5.10;87.73;99200.84;5092738;28;8964;-59
2024/01/06 11:23:22;;;;;;;;;7.40;6.40;;;;;5.14;87.32;99206.75;5092560;28;8838;-59
2024/01/06 11:25:50;;;;;;;;;8.00;7.00;;;;;5.16;87.61;99199.63;5091315;28;8858;-56
2024/01/06 11:28:18;;;;;;;;;9.00;7.00;;;;;5.14;87.32;99197.06;5092592;28;8822;-57
2024/01/06 11:30:46;;;;;;;;;3.20;3.20;;;;;5.11;87.29;99199.06;5095792;28;8822;-58
2024/01/06 11:33:14;;;;;;;;;4.80;4.80;;;;;5.09;87.28;99191.25;5096047;28;8833;-58
2024/01/06 11:35:42;;;;;;;;;7.60;6.00;;;;;5.07;87.10;99194.94;5095936;28;8834;-57
2024/01/06 11:38:09;;;;;;;;;13.80;11.20;;;;;5.03;87.86;99194.31;5096988;28;8826;-57
2024/01/06 11:40:37;;;;;;;;;12.60;12.40;;;;;5.01;87.90;99198.03;5096717;28;8835;-57
2024/01/06 11:43:06;;;;;;;;;17.40;14.20;;;;;4.98;87.38;99200.88;5096293;28;8988;-57
2024/01/06 11:45:34;;;;;;;;;11.40;6.80;;;;;4.94;87.33;99208.16;5096365;28;8822;-59
2024/01/06 11:48:02;;;;;;;;;4.80;3.60;;;;;4.94;87.72;99209.97;5096913;28;8850;-57
2024/01/06 11:50:30;;;;;;;;;7.40;6.20;;;;;4.97;87.62;99204.47;5096802;28;8820;-56
2024/01/06 11:52:59;;;;;;;;;3.00;2.60;;;;;5.00;88.05;99204.22;5097423;28;8833;-59